Supai, Arizona
Current Conditions -  °F | °C
As of 4:54 PM on Wednesday 22 Oct 2014 (Local Time) from KGCN Reporting Station
Clear Clear  
Wind Chill: 65°   Ceiling: Unl
Heat Index: 65°   Visibility: 10mi
Dew Point: 31°   Wind: 3mph
Humidity: 28%   Direction: 310°NW
Pressure: 30.22"   Gusts: NA
Location:  36.22°N, 112.69°W
Report Text: KGCN 222354Z 31003KT 10SM CLR 18/M01 A3022 RMK AO2 SLP186 T01831006 10194 20167 55002
Loading
Personal Weather Stations






























Interactive Weather Map
Tropical Storm Tracking
New forecast layout! Learn more

10-Day Weather Forecast

Advertisements
Track Severe Weather on mobile